sensor_id;sensor_type;location;lat;lon;timestamp;temperature;humidity
11838;DHT22;5978;51.020;6.764;2023-08-07T00:01:21;13.50;99.90
11838;DHT22;5978;51.020;6.764;2023-08-07T00:03:46;13.50;99.90
11838;DHT22;5978;51.020;6.764;2023-08-07T00:06:13;13.60;99.90
11838;DHT22;5978;51.020;6.764;2023-08-07T00:08:38;13.60;99.90
11838;DHT22;5978;51.020;6.764;2023-08-07T00:11:07;13.60;99.90
11838;DHT22;5978;51.020;6.764;2023-08-07T00:13:33;13.60;99.90
11838;DHT22;5978;51.020;6.764;2023-08-07T00:16:04;13.50;99.90
11838;DHT22;5978;51.020;6.764;2023-08-07T00:18:29;13.50;99.90
11838;DHT22;5978;51.020;6.764;2023-08-07T00:20:55;13.50;99.90
11838;DHT22;5978;51.020;6.764;2023-08-07T00:23:21;13.40;99.90
11838;DHT22;5978;51.020;6.764;2023-08-07T00:25:46;13.40;99.90
11838;DHT22;5978;51.020;6.764;2023-08-07T00:28:12;13.40;99.90
11838;DHT22;5978;51.020;6.764;2023-08-07T00:30:37;13.30;99.90
11838;DHT22;5978;51.020;6.764;2023-08-07T00:33:03;13.40;99.90
11838;DHT22;5978;51.020;6.764;2023-08-07T00:35:28;13.30;99.90
11838;DHT22;5978;51.020;6.764;2023-08-07T00:37:54;13.40;99.90
11838;DHT22;5978;51.020;6.764;2023-08-07T00:40:19;13.30;99.90
11838;DHT22;5978;51.020;6.764;2023-08-07T00:46:03;13.30;99.90
11838;DHT22;5978;51.020;6.764;2023-08-07T00:48:29;13.30;99.90
11838;DHT22;5978;51.020;6.764;2023-08-07T00:50:56;13.20;99.90
11838;DHT22;5978;51.020;6.764;2023-08-07T00:53:22;13.10;99.90
11838;DHT22;5978;51.020;6.764;2023-08-07T00:55:47;13.10;99.90
11838;DHT22;5978;51.020;6.764;2023-08-07T00:58:13;13.10;99.90
11838;DHT22;5978;51.020;6.764;2023-08-07T01:00:39;13.10;99.90
11838;DHT22;5978;51.020;6.764;2023-08-07T01:03:07;13.10;99.90
11838;DHT22;5978;51.020;6.764;2023-08-07T01:05:33;13.10;99.90
11838;DHT22;5978;51.020;6.764;2023-08-07T01:07:59;13.10;99.90
11838;DHT22;5978;51.020;6.764;2023-08-07T01:11:07;13.10;99.90
11838;DHT22;5978;51.020;6.764;2023-08-07T01:13:42;13.10;99.90
11838;DHT22;5978;51.020;6.764;2023-08-07T01:16:19;13.10;99.90
11838;DHT22;5978;51.020;6.764;2023-08-07T01:18:57;13.20;99.90
11838;DHT22;5978;51.020;6.764;2023-08-07T01:21:23;13.20;99.90
11838;DHT22;5978;51.020;6.764;2023-08-07T01:23:49;13.20;99.90
11838;DHT22;5978;51.020;6.764;2023-08-07T01:26:16;13.20;99.90
11838;DHT22;5978;51.020;6.764;2023-08-07T01:29:21;13.30;99.90
11838;DHT22;5978;51.020;6.764;2023-08-07T01:31:53;13.30;99.90
11838;DHT22;5978;51.020;6.764;2023-08-07T01:34:21;13.30;99.90
11838;DHT22;5978;51.020;6.764;2023-08-07T01:36:49;13.20;99.90
11838;DHT22;5978;51.020;6.764;2023-08-07T01:39:15;13.30;99.90
11838;DHT22;5978;51.020;6.764;2023-08-07T01:41:41;13.30;99.90
11838;DHT22;5978;51.020;6.764;2023-08-07T01:44:07;13.30;99.90
11838;DHT22;5978;51.020;6.764;2023-08-07T01:46:33;13.30;99.90
11838;DHT22;5978;51.020;6.764;2023-08-07T01:48:59;13.30;99.90
11838;DHT22;5978;51.020;6.764;2023-08-07T01:51:24;13.40;99.90
11838;DHT22;5978;51.020;6.764;2023-08-07T01:53:50;13.30;99.90
11838;DHT22;5978;51.020;6.764;2023-08-07T01:56:15;13.30;99.90
11838;DHT22;5978;51.020;6.764;2023-08-07T01:58:41;13.40;99.90
11838;DHT22;5978;51.020;6.764;2023-08-07T02:01:06;13.40;99.90
11838;DHT22;5978;51.020;6.764;2023-08-07T02:03:32;13.40;99.90
11838;DHT22;5978;51.020;6.764;2023-08-07T02:05:58;13.40;99.90
11838;DHT22;5978;51.020;6.764;2023-08-07T02:08:23;13.40;99.90
11838;DHT22;5978;51.020;6.764;2023-08-07T02:10:49;13.40;99.90
11838;DHT22;5978;51.020;6.764;2023-08-07T02:13:14;13.40;99.90
11838;DHT22;5978;51.020;6.764;2023-08-07T02:15:40;13.50;99.90
11838;DHT22;5978;51.020;6.764;2023-08-07T02:18:06;13.40;99.90
11838;DHT22;5978;51.020;6.764;2023-08-07T02:20:31;13.30;99.90
11838;DHT22;5978;51.020;6.764;2023-08-07T02:22:57;13.40;99.90
11838;DHT22;5978;51.020;6.764;2023-08-07T02:25:22;13.30;99.90
11838;DHT22;5978;51.020;6.764;2023-08-07T02:27:48;13.20;99.90
11838;DHT22;5978;51.020;6.764;2023-08-07T02:30:13;13.30;99.90
11838;DHT22;5978;51.020;6.764;2023-08-07T02:32:39;13.30;99.90
11838;DHT22;5978;51.020;6.764;2023-08-07T02:35:14;13.30;99.90
11838;DHT22;5978;51.020;6.764;2023-08-07T02:37:39;13.20;99.90
11838;DHT22;5978;51.020;6.764;2023-08-07T02:40:05;13.20;99.90
11838;DHT22;5978;51.020;6.764;2023-08-07T02:42:31;13.10;99.90
11838;DHT22;5978;51.020;6.764;2023-08-07T02:44:58;13.10;99.90
11838;DHT22;5978;51.020;6.764;2023-08-07T02:47:23;13.10;99.90
11838;DHT22;5978;51.020;6.764;2023-08-07T02:49:49;13.10;99.90
11838;DHT22;5978;51.020;6.764;2023-08-07T02:52:14;13.10;99.90
11838;DHT22;5978;51.020;6.764;2023-08-07T02:54:40;13.10;99.90
11838;DHT22;5978;51.020;6.764;2023-08-07T02:57:05;13.20;99.90
11838;DHT22;5978;51.020;6.764;2023-08-07T02:59:31;13.10;99.90
11838;DHT22;5978;51.020;6.764;2023-08-07T03:01:56;13.10;99.90
11838;DHT22;5978;51.020;6.764;2023-08-07T03:04:22;13.00;99.90
11838;DHT22;5978;51.020;6.764;2023-08-07T03:06:47;13.00;99.90
11838;DHT22;5978;51.020;6.764;2023-08-07T03:09:13;13.00;99.90
11838;DHT22;5978;51.020;6.764;2023-08-07T03:11:39;13.00;99.90
11838;DHT22;5978;51.020;6.764;2023-08-07T03:14:04;12.90;99.90
11838;DHT22;5978;51.020;6.764;2023-08-07T03:16:30;12.90;99.90
11838;DHT22;5978;51.020;6.764;2023-08-07T03:18:55;12.90;99.90
11838;DHT22;5978;51.020;6.764;2023-08-07T03:21:21;12.90;99.90
11838;DHT22;5978;51.020;6.764;2023-08-07T03:23:53;12.90;99.90
11838;DHT22;5978;51.020;6.764;2023-08-07T03:26:18;12.90;99.90
11838;DHT22;5978;51.020;6.764;2023-08-07T03:28:44;12.90;99.90
11838;DHT22;5978;51.020;6.764;2023-08-07T03:31:12;12.90;99.90
11838;DHT22;5978;51.020;6.764;2023-08-07T03:33:37;12.90;99.90
11838;DHT22;5978;51.020;6.764;2023-08-07T03:36:03;12.90;99.90
11838;DHT22;5978;51.020;6.764;2023-08-07T03:42:03;13.00;99.90
11838;DHT22;5978;51.020;6.764;2023-08-07T03:44:50;13.00;99.90
11838;DHT22;5978;51.020;6.764;2023-08-07T03:47:16;12.90;99.90
11838;DHT22;5978;51.020;6.764;2023-08-07T03:49:41;13.00;99.90
11838;DHT22;5978;51.020;6.764;2023-08-07T03:52:07;13.00;99.90
11838;DHT22;5978;51.020;6.764;2023-08-07T03:54:33;13.00;99.90
11838;DHT22;5978;51.020;6.764;2023-08-07T03:56:58;12.90;99.90
11838;DHT22;5978;51.020;6.764;2023-08-07T03:59:24;12.90;99.90
11838;DHT22;5978;51.020;6.764;2023-08-07T04:01:49;12.90;99.90
11838;DHT22;5978;51.020;6.764;2023-08-07T04:04:15;12.90;99.90
11838;DHT22;5978;51.020;6.764;2023-08-07T04:06:40;13.00;99.90
11838;DHT22;5978;51.020;6.764;2023-08-07T04:09:06;13.00;99.90
11838;DHT22;5978;51.020;6.764;2023-08-07T04:11:31;13.00;99.90
11838;DHT22;5978;51.020;6.764;2023-08-07T04:13:58;12.90;99.90
11838;DHT22;5978;51.020;6.764;2023-08-07T04:16:24;12.90;99.90
11838;DHT22;5978;51.020;6.764;2023-08-07T04:18:51;12.90;99.90
11838;DHT22;5978;51.020;6.764;2023-08-07T04:21:16;13.00;99.90
11838;DHT22;5978;51.020;6.764;2023-08-07T04:23:42;13.00;99.90
11838;DHT22;5978;51.020;6.764;2023-08-07T04:26:07;13.00;99.90
11838;DHT22;5978;51.020;6.764;2023-08-07T04:28:36;12.90;99.90
11838;DHT22;5978;51.020;6.764;2023-08-07T04:31:02;12.90;99.90
11838;DHT22;5978;51.020;6.764;2023-08-07T04:33:28;12.90;99.90
11838;DHT22;5978;51.020;6.764;2023-08-07T04:35:53;12.90;99.90
11838;DHT22;5978;51.020;6.764;2023-08-07T04:38:19;12.90;99.90
11838;DHT22;5978;51.020;6.764;2023-08-07T04:40:46;13.00;99.90
11838;DHT22;5978;51.020;6.764;2023-08-07T04:43:18;13.00;99.90
11838;DHT22;5978;51.020;6.764;2023-08-07T04:46:02;13.00;99.90
11838;DHT22;5978;51.020;6.764;2023-08-07T04:48:53;13.00;99.90
11838;DHT22;5978;51.020;6.764;2023-08-07T04:51:19;13.00;99.90
11838;DHT22;5978;51.020;6.764;2023-08-07T04:53:45;13.00;99.90
11838;DHT22;5978;51.020;6.764;2023-08-07T04:56:10;13.00;99.90
11838;DHT22;5978;51.020;6.764;2023-08-07T04:58:36;13.00;99.90
11838;DHT22;5978;51.020;6.764;2023-08-07T05:01:02;13.00;99.90
11838;DHT22;5978;51.020;6.764;2023-08-07T05:03:28;13.10;99.90
11838;DHT22;5978;51.020;6.764;2023-08-07T05:06:00;13.10;99.90
11838;DHT22;5978;51.020;6.764;2023-08-07T05:08:26;13.10;99.90
11838;DHT22;5978;51.020;6.764;2023-08-07T05:10:52;13.20;99.90
11838;DHT22;5978;51.020;6.764;2023-08-07T05:13:18;13.20;99.90
11838;DHT22;5978;51.020;6.764;2023-08-07T05:15:43;13.30;99.90
11838;DHT22;5978;51.020;6.764;2023-08-07T05:18:09;13.30;99.90
11838;DHT22;5978;51.020;6.764;2023-08-07T05:20:34;13.20;99.90
11838;DHT22;5978;51.020;6.764;2023-08-07T05:23:00;13.30;99.90
11838;DHT22;5978;51.020;6.764;2023-08-07T05:25:26;13.30;99.90
11838;DHT22;5978;51.020;6.764;2023-08-07T05:27:51;13.40;99.90
11838;DHT22;5978;51.020;6.764;2023-08-07T05:30:17;13.30;99.90
11838;DHT22;5978;51.020;6.764;2023-08-07T05:32:42;13.30;99.90
11838;DHT22;5978;51.020;6.764;2023-08-07T05:35:08;13.40;99.90
11838;DHT22;5978;51.020;6.764;2023-08-07T05:37:35;13.30;99.90
11838;DHT22;5978;51.020;6.764;2023-08-07T05:40:01;13.30;99.90
11838;DHT22;5978;51.020;6.764;2023-08-07T05:42:26;13.30;99.90
11838;DHT22;5978;51.020;6.764;2023-08-07T05:44:52;13.30;99.90
11838;DHT22;5978;51.020;6.764;2023-08-07T05:47:18;13.30;99.90
11838;DHT22;5978;51.020;6.764;2023-08-07T05:49:43;13.40;99.90
11838;DHT22;5978;51.020;6.764;2023-08-07T05:52:09;13.40;99.90
11838;DHT22;5978;51.020;6.764;2023-08-07T05:54:34;13.30;99.90
11838;DHT22;5978;51.020;6.764;2023-08-07T05:57:00;13.40;99.90
11838;DHT22;5978;51.020;6.764;2023-08-07T05:59:25;13.30;99.90
11838;DHT22;5978;51.020;6.764;2023-08-07T06:01:51;13.30;99.90
11838;DHT22;5978;51.020;6.764;2023-08-07T06:04:17;13.30;99.90
11838;DHT22;5978;51.020;6.764;2023-08-07T06:06:43;13.20;99.90
11838;DHT22;5978;51.020;6.764;2023-08-07T06:09:08;13.30;99.90
11838;DHT22;5978;51.020;6.764;2023-08-07T06:11:34;13.30;99.90
11838;DHT22;5978;51.020;6.764;2023-08-07T06:14:00;13.30;99.90
11838;DHT22;5978;51.020;6.764;2023-08-07T06:16:26;13.20;99.90
11838;DHT22;5978;51.020;6.764;2023-08-07T06:18:52;13.30;99.90
11838;DHT22;5978;51.020;6.764;2023-08-07T06:21:18;13.30;99.90
11838;DHT22;5978;51.020;6.764;2023-08-07T06:23:44;13.30;99.90
11838;DHT22;5978;51.020;6.764;2023-08-07T06:26:10;13.30;99.90
11838;DHT22;5978;51.020;6.764;2023-08-07T06:28:35;13.30;99.90
11838;DHT22;5978;51.020;6.764;2023-08-07T06:31:08;13.20;99.90
11838;DHT22;5978;51.020;6.764;2023-08-07T06:33:34;13.20;99.90
11838;DHT22;5978;51.020;6.764;2023-08-07T06:36:01;13.20;99.90
11838;DHT22;5978;51.020;6.764;2023-08-07T06:38:27;13.20;99.90
11838;DHT22;5978;51.020;6.764;2023-08-07T06:40:52;13.20;99.90
11838;DHT22;5978;51.020;6.764;2023-08-07T06:43:18;13.20;99.90
11838;DHT22;5978;51.020;6.764;2023-08-07T06:45:46;13.10;99.90
11838;DHT22;5978;51.020;6.764;2023-08-07T06:48:12;13.10;99.90
11838;DHT22;5978;51.020;6.764;2023-08-07T06:50:38;13.10;99.90
11838;DHT22;5978;51.020;6.764;2023-08-07T06:53:03;13.10;99.90
11838;DHT22;5978;51.020;6.764;2023-08-07T06:55:29;13.00;99.90
11838;DHT22;5978;51.020;6.764;2023-08-07T06:57:54;13.00;99.90
11838;DHT22;5978;51.020;6.764;2023-08-07T07:00:20;13.00;99.90
11838;DHT22;5978;51.020;6.764;2023-08-07T07:02:45;13.00;99.90
11838;DHT22;5978;51.020;6.764;2023-08-07T07:05:11;12.90;99.90
11838;DHT22;5978;51.020;6.764;2023-08-07T07:07:38;12.90;99.90
11838;DHT22;5978;51.020;6.764;2023-08-07T07:10:04;12.90;99.90
11838;DHT22;5978;51.020;6.764;2023-08-07T07:12:29;12.90;99.90
11838;DHT22;5978;51.020;6.764;2023-08-07T07:14:55;13.00;99.90
11838;DHT22;5978;51.020;6.764;2023-08-07T07:17:21;13.00;99.90
11838;DHT22;5978;51.020;6.764;2023-08-07T07:19:46;13.10;99.90
11838;DHT22;5978;51.020;6.764;2023-08-07T07:22:12;13.20;99.90
11838;DHT22;5978;51.020;6.764;2023-08-07T07:24:38;13.20;99.90
11838;DHT22;5978;51.020;6.764;2023-08-07T07:27:04;13.20;99.90
11838;DHT22;5978;51.020;6.764;2023-08-07T07:29:30;13.20;99.90
11838;DHT22;5978;51.020;6.764;2023-08-07T07:31:56;13.20;99.90
11838;DHT22;5978;51.020;6.764;2023-08-07T07:34:21;13.20;99.90
11838;DHT22;5978;51.020;6.764;2023-08-07T07:36:47;13.30;99.90
11838;DHT22;5978;51.020;6.764;2023-08-07T07:39:13;13.30;99.90
11838;DHT22;5978;51.020;6.764;2023-08-07T07:41:38;13.40;99.90
11838;DHT22;5978;51.020;6.764;2023-08-07T07:44:04;13.40;99.90
11838;DHT22;5978;51.020;6.764;2023-08-07T07:46:30;13.40;99.90
11838;DHT22;5978;51.020;6.764;2023-08-07T07:49:15;13.50;99.90
11838;DHT22;5978;51.020;6.764;2023-08-07T07:51:41;13.60;99.90
11838;DHT22;5978;51.020;6.764;2023-08-07T07:54:08;13.60;99.90
11838;DHT22;5978;51.020;6.764;2023-08-07T07:56:33;13.70;99.90
11838;DHT22;5978;51.020;6.764;2023-08-07T07:58:59;13.80;99.90
11838;DHT22;5978;51.020;6.764;2023-08-07T08:01:24;13.90;99.90
11838;DHT22;5978;51.020;6.764;2023-08-07T08:03:50;13.90;99.90
11838;DHT22;5978;51.020;6.764;2023-08-07T08:06:16;13.90;99.90
11838;DHT22;5978;51.020;6.764;2023-08-07T08:08:42;14.00;99.90
11838;DHT22;5978;51.020;6.764;2023-08-07T08:11:08;14.00;99.90
11838;DHT22;5978;51.020;6.764;2023-08-07T08:13:49;14.20;99.90
11838;DHT22;5978;51.020;6.764;2023-08-07T08:16:15;14.30;99.90
11838;DHT22;5978;51.020;6.764;2023-08-07T08:18:40;14.40;99.90
11838;DHT22;5978;51.020;6.764;2023-08-07T08:21:06;14.30;99.90
11838;DHT22;5978;51.020;6.764;2023-08-07T08:23:32;14.40;99.90
11838;DHT22;5978;51.020;6.764;2023-08-07T08:25:57;14.40;99.90
11838;DHT22;5978;51.020;6.764;2023-08-07T08:28:23;14.40;99.90
11838;DHT22;5978;51.020;6.764;2023-08-07T08:30:49;14.40;99.90
11838;DHT22;5978;51.020;6.764;2023-08-07T08:33:14;14.40;99.90
11838;DHT22;5978;51.020;6.764;2023-08-07T08:35:40;14.40;99.90
11838;DHT22;5978;51.020;6.764;2023-08-07T08:38:06;14.40;99.90
11838;DHT22;5978;51.020;6.764;2023-08-07T08:40:31;14.40;99.90
11838;DHT22;5978;51.020;6.764;2023-08-07T08:43:00;14.50;99.90
11838;DHT22;5978;51.020;6.764;2023-08-07T08:45:26;14.60;99.90
11838;DHT22;5978;51.020;6.764;2023-08-07T08:47:55;14.80;99.90
11838;DHT22;5978;51.020;6.764;2023-08-07T08:50:24;14.90;99.90
11838;DHT22;5978;51.020;6.764;2023-08-07T08:52:51;15.10;99.90
11838;DHT22;5978;51.020;6.764;2023-08-07T08:55:20;15.20;99.90
11838;DHT22;5978;51.020;6.764;2023-08-07T08:57:46;15.50;99.90
11838;DHT22;5978;51.020;6.764;2023-08-07T09:00:13;15.70;99.90
11838;DHT22;5978;51.020;6.764;2023-08-07T09:02:50;15.90;99.90
11838;DHT22;5978;51.020;6.764;2023-08-07T09:05:19;16.00;99.90
11838;DHT22;5978;51.020;6.764;2023-08-07T09:07:49;16.10;99.90
11838;DHT22;5978;51.020;6.764;2023-08-07T09:10:15;16.00;99.90
11838;DHT22;5978;51.020;6.764;2023-08-07T09:12:45;16.00;99.90
11838;DHT22;5978;51.020;6.764;2023-08-07T09:15:16;16.00;99.90
11838;DHT22;5978;51.020;6.764;2023-08-07T09:17:44;16.20;99.90
11838;DHT22;5978;51.020;6.764;2023-08-07T09:20:11;16.40;99.90
11838;DHT22;5978;51.020;6.764;2023-08-07T09:22:38;16.60;99.90
11838;DHT22;5978;51.020;6.764;2023-08-07T09:25:04;16.70;99.90
11838;DHT22;5978;51.020;6.764;2023-08-07T09:27:30;16.50;99.90
11838;DHT22;5978;51.020;6.764;2023-08-07T09:29:56;16.80;99.90
11838;DHT22;5978;51.020;6.764;2023-08-07T09:32:23;16.90;99.90
11838;DHT22;5978;51.020;6.764;2023-08-07T09:34:50;17.10;99.90
11838;DHT22;5978;51.020;6.764;2023-08-07T09:37:16;17.10;99.90
11838;DHT22;5978;51.020;6.764;2023-08-07T09:39:42;17.10;99.90
11838;DHT22;5978;51.020;6.764;2023-08-07T09:42:15;17.20;99.90
11838;DHT22;5978;51.020;6.764;2023-08-07T09:44:41;17.50;99.90
11838;DHT22;5978;51.020;6.764;2023-08-07T09:47:25;17.50;99.90
11838;DHT22;5978;51.020;6.764;2023-08-07T09:49:54;17.40;99.90
11838;DHT22;5978;51.020;6.764;2023-08-07T09:52:20;17.50;99.90
11838;DHT22;5978;51.020;6.764;2023-08-07T09:54:46;17.80;99.90
11838;DHT22;5978;51.020;6.764;2023-08-07T09:57:11;18.00;99.90
11838;DHT22;5978;51.020;6.764;2023-08-07T09:59:40;18.10;99.90
11838;DHT22;5978;51.020;6.764;2023-08-07T10:02:12;18.10;99.90
11838;DHT22;5978;51.020;6.764;2023-08-07T10:04:38;18.00;99.90
11838;DHT22;5978;51.020;6.764;2023-08-07T10:07:04;18.20;99.90
11838;DHT22;5978;51.020;6.764;2023-08-07T10:09:30;18.20;99.90
11838;DHT22;5978;51.020;6.764;2023-08-07T10:11:58;17.90;99.90
11838;DHT22;5978;51.020;6.764;2023-08-07T10:14:24;18.10;99.90
11838;DHT22;5978;51.020;6.764;2023-08-07T10:16:51;18.30;99.90
11838;DHT22;5978;51.020;6.764;2023-08-07T10:19:17;18.80;99.90
11838;DHT22;5978;51.020;6.764;2023-08-07T10:21:43;19.00;99.90
11838;DHT22;5978;51.020;6.764;2023-08-07T10:24:09;19.00;99.90
11838;DHT22;5978;51.020;6.764;2023-08-07T10:26:39;19.10;99.90
11838;DHT22;5978;51.020;6.764;2023-08-07T10:29:10;19.30;99.90
11838;DHT22;5978;51.020;6.764;2023-08-07T10:31:38;19.40;99.90
11838;DHT22;5978;51.020;6.764;2023-08-07T10:34:05;19.40;99.90
11838;DHT22;5978;51.020;6.764;2023-08-07T10:36:34;19.40;99.90
11838;DHT22;5978;51.020;6.764;2023-08-07T10:39:08;19.40;99.90
11838;DHT22;5978;51.020;6.764;2023-08-07T10:41:44;19.30;99.90
11838;DHT22;5978;51.020;6.764;2023-08-07T10:44:19;19.50;99.90
11838;DHT22;5978;51.020;6.764;2023-08-07T10:46:53;19.90;99.90
11838;DHT22;5978;51.020;6.764;2023-08-07T10:49:38;20.10;99.90
11838;DHT22;5978;51.020;6.764;2023-08-07T10:52:12;19.70;99.90
11838;DHT22;5978;51.020;6.764;2023-08-07T10:54:44;19.50;99.90
11838;DHT22;5978;51.020;6.764;2023-08-07T10:57:11;19.30;99.90
11838;DHT22;5978;51.020;6.764;2023-08-07T10:59:38;19.70;99.90
11838;DHT22;5978;51.020;6.764;2023-08-07T11:02:08;20.10;99.90
11838;DHT22;5978;51.020;6.764;2023-08-07T11:04:36;19.90;99.90
11838;DHT22;5978;51.020;6.764;2023-08-07T11:07:02;20.40;99.90
11838;DHT22;5978;51.020;6.764;2023-08-07T11:09:27;20.70;99.90
11838;DHT22;5978;51.020;6.764;2023-08-07T11:11:53;21.30;99.90
11838;DHT22;5978;51.020;6.764;2023-08-07T11:14:19;21.70;99.90
11838;DHT22;5978;51.020;6.764;2023-08-07T11:16:46;21.20;99.90
11838;DHT22;5978;51.020;6.764;2023-08-07T11:19:16;21.20;99.90
11838;DHT22;5978;51.020;6.764;2023-08-07T11:21:43;21.20;99.90
11838;DHT22;5978;51.020;6.764;2023-08-07T11:24:11;21.30;99.90
11838;DHT22;5978;51.020;6.764;2023-08-07T11:26:37;21.40;99.90
11838;DHT22;5978;51.020;6.764;2023-08-07T11:29:03;21.90;99.90
11838;DHT22;5978;51.020;6.764;2023-08-07T11:31:28;22.40;99.90
11838;DHT22;5978;51.020;6.764;2023-08-07T11:33:57;22.60;99.90
11838;DHT22;5978;51.020;6.764;2023-08-07T11:36:24;22.90;99.90
11838;DHT22;5978;51.020;6.764;2023-08-07T11:38:51;22.20;99.90
11838;DHT22;5978;51.020;6.764;2023-08-07T11:41:18;22.50;99.90
11838;DHT22;5978;51.020;6.764;2023-08-07T11:43:44;23.30;99.90
11838;DHT22;5978;51.020;6.764;2023-08-07T11:46:12;23.60;95.10
11838;DHT22;5978;51.020;6.764;2023-08-07T11:48:38;24.30;92.90
11838;DHT22;5978;51.020;6.764;2023-08-07T11:51:05;24.30;91.40
11838;DHT22;5978;51.020;6.764;2023-08-07T11:53:33;24.00;90.30
11838;DHT22;5978;51.020;6.764;2023-08-07T11:56:05;24.30;90.00
11838;DHT22;5978;51.020;6.764;2023-08-07T11:58:36;25.20;89.80
11838;DHT22;5978;51.020;6.764;2023-08-07T12:01:10;25.00;85.20
11838;DHT22;5978;51.020;6.764;2023-08-07T12:03:37;25.20;84.40
11838;DHT22;5978;51.020;6.764;2023-08-07T12:06:07;25.90;84.20
11838;DHT22;5978;51.020;6.764;2023-08-07T12:08:37;25.70;79.10
